createdAt,value
2023-01-17T00:02:20.806Z,4.32
2023-01-17T00:04:47.718Z,4.33
2023-01-17T00:07:17.508Z,4.37
2023-01-17T00:09:45.844Z,4.34
2023-01-17T00:12:12.937Z,4.30
2023-01-17T00:14:39.828Z,4.25
2023-01-17T00:17:06.670Z,4.27
2023-01-17T00:19:33.501Z,4.19
2023-01-17T00:22:00.470Z,4.14
2023-01-17T00:24:27.240Z,4.12
2023-01-17T00:26:55.403Z,4.06
2023-01-17T00:29:22.270Z,4.03
2023-01-17T00:31:49.190Z,4.01
2023-01-17T00:34:16.038Z,3.96
2023-01-17T00:36:42.804Z,3.95
2023-01-17T00:39:10.117Z,3.94
2023-01-17T00:41:36.930Z,3.94
2023-01-17T00:44:05.226Z,3.91
2023-01-17T00:46:32.250Z,3.90
2023-01-17T00:48:59.160Z,3.92
2023-01-17T00:51:28.377Z,3.88
2023-01-17T00:53:55.132Z,3.81
2023-01-17T00:56:22.002Z,3.85
2023-01-17T00:58:49.201Z,3.88
2023-01-17T01:01:17.786Z,3.89
2023-01-17T01:03:44.631Z,3.90
2023-01-17T01:06:12.144Z,3.88
2023-01-17T01:08:38.974Z,3.89
2023-01-17T01:11:08.420Z,3.85
2023-01-17T01:13:35.237Z,3.89
2023-01-17T01:16:04.132Z,3.88
2023-01-17T01:18:33.385Z,3.87
2023-01-17T01:21:03.415Z,3.87
2023-01-17T01:23:30.178Z,3.90
2023-01-17T01:25:57.274Z,3.87
2023-01-17T01:28:24.046Z,3.83
2023-01-17T01:30:52.162Z,3.81
2023-01-17T01:33:18.998Z,3.75
2023-01-17T01:35:49.457Z,3.68
2023-01-17T01:38:16.819Z,3.63
2023-01-17T01:40:47.814Z,3.57
2023-01-17T01:43:18.365Z,3.58
2023-01-17T01:45:52.774Z,3.61
2023-01-17T01:48:33.510Z,3.51
2023-01-17T01:51:08.818Z,3.40
2023-01-17T01:53:42.343Z,3.43
2023-01-17T01:56:14.462Z,3.46
2023-01-17T01:58:50.420Z,3.45
2023-01-17T02:01:18.198Z,3.49
2023-01-17T02:03:47.421Z,3.56
2023-01-17T02:06:31.333Z,3.60
2023-01-17T02:09:04.208Z,3.67
2023-01-17T02:11:32.779Z,3.70
2023-01-17T02:13:59.753Z,3.75
2023-01-17T02:16:50.130Z,3.82
2023-01-17T02:20:00.783Z,3.83
2023-01-17T02:23:15.547Z,3.77
2023-01-17T02:26:46.647Z,3.79
2023-01-17T02:29:53.612Z,3.79
2023-01-17T02:32:36.012Z,3.72
2023-01-17T02:35:13.582Z,3.66
2023-01-17T02:37:55.499Z,3.61
2023-01-17T02:40:30.769Z,3.61
2023-01-17T02:43:05.721Z,3.72
2023-01-17T02:45:32.648Z,3.78
2023-01-17T02:48:01.053Z,3.86
2023-01-17T02:50:53.199Z,3.93
2023-01-17T02:53:42.397Z,4.01
2023-01-17T02:56:26.678Z,3.81
2023-01-17T02:59:14.331Z,3.46
2023-01-17T03:02:03.230Z,3.33
2023-01-17T03:04:40.816Z,3.29
2023-01-17T03:07:15.975Z,3.21
2023-01-17T03:09:44.869Z,3.19
2023-01-17T03:12:12.914Z,3.14
2023-01-17T03:14:39.849Z,3.20
2023-01-17T03:17:07.212Z,3.25
2023-01-17T03:19:35.344Z,3.25
2023-01-17T03:22:02.077Z,3.24
2023-01-17T03:24:28.845Z,3.26
2023-01-17T03:26:55.699Z,3.31
2023-01-17T03:29:22.712Z,3.37
2023-01-17T03:31:49.610Z,3.43
2023-01-17T03:34:16.573Z,3.48
2023-01-17T03:36:44.779Z,3.54
2023-01-17T03:39:11.601Z,3.58
2023-01-17T03:41:38.406Z,3.65
2023-01-17T03:44:05.543Z,3.66
2023-01-17T03:46:32.572Z,3.71
2023-01-17T03:48:59.503Z,3.71
2023-01-17T03:51:26.375Z,3.69
2023-01-17T03:53:54.566Z,3.72
2023-01-17T03:56:21.479Z,3.34
2023-01-17T03:58:48.413Z,3.45
2023-01-17T04:01:15.500Z,3.55
2023-01-17T04:03:42.538Z,3.64
2023-01-17T04:06:19.434Z,3.71
2023-01-17T04:09:14.980Z,3.76
2023-01-17T04:11:41.909Z,3.81
2023-01-17T04:14:08.879Z,3.82
2023-01-17T04:16:38.202Z,3.83
2023-01-17T04:19:05.145Z,3.66
2023-01-17T04:21:32.144Z,3.55
2023-01-17T04:23:58.969Z,3.35
2023-01-17T04:26:27.182Z,3.20
2023-01-17T04:28:53.934Z,3.06
2023-01-17T04:31:20.851Z,3.10
2023-01-17T04:33:47.888Z,3.07
2023-01-17T04:36:14.704Z,3.00
2023-01-17T04:38:41.573Z,3.08
2023-01-17T04:41:08.469Z,3.22
2023-01-17T04:43:36.954Z,3.35
2023-01-17T04:46:04.222Z,3.44
2023-01-17T04:48:31.219Z,3.56
2023-01-17T04:51:02.764Z,3.64
2023-01-17T04:53:30.066Z,3.70
2023-01-17T04:55:58.012Z,3.73
2023-01-17T04:58:24.999Z,3.79
2023-01-17T05:00:53.484Z,3.81
2023-01-17T05:03:23.001Z,3.76
2023-01-17T05:05:49.878Z,3.70
2023-01-17T05:08:17.008Z,3.59
2023-01-17T05:10:46.648Z,3.42
2023-01-17T05:13:14.792Z,3.18
2023-01-17T05:15:42.029Z,3.15
2023-01-17T05:18:13.784Z,3.01
2023-01-17T05:20:40.875Z,2.88
2023-01-17T05:23:08.549Z,2.77
2023-01-17T05:25:35.697Z,2.72
2023-01-17T05:28:03.342Z,2.58
2023-01-17T05:30:32.606Z,2.57
2023-01-17T05:32:59.748Z,2.61
2023-01-17T05:35:30.987Z,2.59
2023-01-17T05:38:01.551Z,2.58
2023-01-17T05:40:32.132Z,2.64
2023-01-17T05:43:01.273Z,2.69
2023-01-17T05:45:31.091Z,2.64
2023-01-17T05:47:58.540Z,2.59
2023-01-17T05:50:29.998Z,2.64
2023-01-17T05:53:15.537Z,2.63
2023-01-17T05:55:43.294Z,2.56
2023-01-17T05:58:16.571Z,2.40
2023-01-17T06:00:44.501Z,2.31
2023-01-17T06:03:12.001Z,2.28
2023-01-17T06:05:41.415Z,2.26
2023-01-17T06:13:04.356Z,2.05
2023-01-17T06:15:56.316Z,2.16
2023-01-17T06:18:23.197Z,2.21
2023-01-17T06:21:56.406Z,2.23
2023-01-17T06:24:25.918Z,2.11
2023-01-17T06:26:56.035Z,1.99
2023-01-17T06:29:23.419Z,1.85
2023-01-17T06:31:50.681Z,1.79
2023-01-17T06:34:17.991Z,1.78
2023-01-17T06:36:44.977Z,1.81
2023-01-17T06:39:14.834Z,1.90
2023-01-17T06:41:43.299Z,1.94
2023-01-17T06:44:10.593Z,1.94
2023-01-17T06:46:37.916Z,1.93
2023-01-17T06:49:05.836Z,1.81
2023-01-17T06:51:32.994Z,1.93
2023-01-17T06:54:00.125Z,2.21
2023-01-17T06:56:27.018Z,3.03
2023-01-17T06:58:57.997Z,3.20
2023-01-17T07:01:25.414Z,3.67
2023-01-17T07:03:52.284Z,3.87
2023-01-17T07:06:20.102Z,3.80
2023-01-17T07:08:46.989Z,3.30
2023-01-17T07:11:14.202Z,3.05
2023-01-17T07:13:41.408Z,3.20
2023-01-17T07:16:09.955Z,3.35
2023-01-17T07:18:36.928Z,3.39
2023-01-17T07:21:04.085Z,3.65
2023-01-17T07:23:31.064Z,3.70
2023-01-17T07:26:00.497Z,3.70
2023-01-17T07:28:28.557Z,4.00
2023-01-17T07:30:57.456Z,4.36
2023-01-17T07:33:25.614Z,4.57
2023-01-17T07:35:52.439Z,4.82
2023-01-17T07:38:20.292Z,5.23
2023-01-17T07:40:47.147Z,5.84
2023-01-17T07:43:14.029Z,5.83
2023-01-17T07:45:43.092Z,6.31
2023-01-17T07:48:11.984Z,6.35
2023-01-17T07:50:40.329Z,6.81
2023-01-17T07:53:07.330Z,7.13
2023-01-17T07:55:34.299Z,7.11
2023-01-17T07:58:02.996Z,6.97
2023-01-17T08:00:29.980Z,6.81
2023-01-17T08:02:57.167Z,6.73
2023-01-17T08:05:24.508Z,6.58
2023-01-17T08:07:53.848Z,6.44
2023-01-17T08:10:21.186Z,6.18
2023-01-17T08:12:50.102Z,5.93
2023-01-17T08:15:18.373Z,5.57
2023-01-17T08:17:47.100Z,5.31
2023-01-17T08:20:14.593Z,5.07
2023-01-17T08:22:42.117Z,3.79
2023-01-17T08:25:11.511Z,3.49
2023-01-17T08:27:39.574Z,3.24
2023-01-17T08:30:08.565Z,2.99
2023-01-17T08:32:35.525Z,3.20
2023-01-17T08:35:03.057Z,3.20
2023-01-17T08:37:29.859Z,3.30
2023-01-17T08:39:56.675Z,2.94
2023-01-17T08:42:25.254Z,2.84
2023-01-17T08:44:52.155Z,3.04
2023-01-17T08:47:19.006Z,3.44
2023-01-17T08:49:45.778Z,3.66
2023-01-17T08:52:12.912Z,3.89
2023-01-17T08:54:39.885Z,3.86
2023-01-17T08:57:06.735Z,3.07
2023-01-17T08:59:34.906Z,3.00
2023-01-17T09:02:01.980Z,2.60
2023-01-17T09:04:29.238Z,2.82
2023-01-17T09:06:56.121Z,3.02
2023-01-17T09:09:23.148Z,2.99
2023-01-17T09:11:49.917Z,3.07
2023-01-17T09:14:16.691Z,2.92
2023-01-17T09:16:44.876Z,3.37
2023-01-17T09:19:11.752Z,4.00
2023-01-17T09:21:38.674Z,4.63
2023-01-17T09:24:06.823Z,4.94
2023-01-17T09:26:33.867Z,5.24
2023-01-17T09:29:00.949Z,5.48
2023-01-17T09:31:28.616Z,5.69
2023-01-17T09:33:58.550Z,5.94
2023-01-17T09:36:27.318Z,6.34
2023-01-17T09:38:56.866Z,6.82
2023-01-17T09:41:28.307Z,7.07
2023-01-17T09:44:04.840Z,7.49
2023-01-17T09:46:38.884Z,7.94
2023-01-17T09:49:15.823Z,8.36
2023-01-17T09:51:42.915Z,9.03
2023-01-17T09:54:22.288Z,8.79
2023-01-17T09:56:58.509Z,8.38
2023-01-17T09:59:40.238Z,9.11
2023-01-17T10:02:34.585Z,9.66
2023-01-17T10:05:28.839Z,11.25
2023-01-17T10:08:14.695Z,11.88
2023-01-17T10:10:46.782Z,13.81
2023-01-17T10:13:39.397Z,15.11
2023-01-17T10:16:29.366Z,16.80
2023-01-17T10:19:18.533Z,13.72
2023-01-17T10:22:01.795Z,10.65
2023-01-17T10:25:02.597Z,10.64
2023-01-17T10:27:37.486Z,11.65
2023-01-17T10:30:23.556Z,13.18
2023-01-17T10:32:50.846Z,14.97
2023-01-17T10:35:26.256Z,16.38
2023-01-17T10:37:58.294Z,17.50
2023-01-17T10:40:37.509Z,18.27
2023-01-17T10:43:19.402Z,18.66
2023-01-17T10:45:53.872Z,18.95
2023-01-17T10:48:36.532Z,19.12
2023-01-17T10:51:21.352Z,18.75
2023-01-17T10:54:09.924Z,19.17
2023-01-17T10:56:40.694Z,19.26
2023-01-17T10:59:23.700Z,19.25
2023-01-17T11:01:51.991Z,19.28
2023-01-17T11:07:37.685Z,19.44
2023-01-17T11:10:37.790Z,20.40
2023-01-17T11:13:17.490Z,19.14
2023-01-17T11:15:50.573Z,16.99
2023-01-17T11:18:20.488Z,16.63
2023-01-17T11:20:49.100Z,17.13
2023-01-17T11:23:20.085Z,16.72
2023-01-17T11:25:56.052Z,15.81
2023-01-17T11:28:27.404Z,15.56
2023-01-17T11:30:57.520Z,15.80
2023-01-17T11:33:38.628Z,17.60
2023-01-17T11:36:06.096Z,18.65
2023-01-17T11:38:33.100Z,15.74
2023-01-17T11:41:10.038Z,16.79
2023-01-17T11:43:51.684Z,18.26
2023-01-17T11:46:20.616Z,18.47
2023-01-17T11:48:51.489Z,13.18
2023-01-17T11:51:25.768Z,11.77
2023-01-17T11:54:06.227Z,10.69
2023-01-17T11:56:37.704Z,9.75
2023-01-17T11:59:29.348Z,8.76
2023-01-17T12:02:38.532Z,10.77
2023-01-17T12:05:27.887Z,13.55
2023-01-17T12:08:12.922Z,12.43
2023-01-17T12:10:54.168Z,12.47
2023-01-17T12:13:41.484Z,14.62
2023-01-17T12:16:26.815Z,13.78
2023-01-17T12:19:12.624Z,12.54
2023-01-17T12:21:59.845Z,11.59
2023-01-17T12:25:10.593Z,12.72
2023-01-17T12:27:59.477Z,10.55
2023-01-17T12:30:52.916Z,10.66
2023-01-17T12:33:33.646Z,8.81
2023-01-17T12:36:11.631Z,8.84
2023-01-17T12:38:40.131Z,8.47
2023-01-17T12:41:16.500Z,10.67
2023-01-17T12:43:44.762Z,11.48
2023-01-17T12:46:20.667Z,10.84
2023-01-17T12:48:55.992Z,11.47
2023-01-17T12:51:30.566Z,9.70
2023-01-17T12:54:07.045Z,8.26
2023-01-17T12:56:42.477Z,7.72
2023-01-17T12:59:19.329Z,7.53
2023-01-17T13:01:55.456Z,7.46
2023-01-17T13:04:31.933Z,6.82
2023-01-17T13:07:20.382Z,6.32
2023-01-17T13:09:55.341Z,6.40
2023-01-17T13:12:37.336Z,6.49
2023-01-17T13:15:17.002Z,6.68
2023-01-17T13:17:51.792Z,6.54
2023-01-17T13:20:28.702Z,6.33
2023-01-17T13:23:12.038Z,6.22
2023-01-17T13:25:47.447Z,6.15
2023-01-17T13:28:28.430Z,6.28
2023-01-17T13:31:21.291Z,6.19
2023-01-17T13:34:31.170Z,6.07
2023-01-17T13:37:36.268Z,6.03
2023-01-17T13:40:37.540Z,5.74
2023-01-17T13:43:13.731Z,5.69
2023-01-17T13:45:40.830Z,5.90
2023-01-17T13:48:27.863Z,5.86
2023-01-17T13:50:58.641Z,5.94
2023-01-17T13:53:58.681Z,5.72
2023-01-17T13:56:35.050Z,6.31
2023-01-17T13:59:28.636Z,6.41
2023-01-17T14:01:55.885Z,6.51
2023-01-17T14:04:25.001Z,6.02
2023-01-17T14:06:58.952Z,6.06
2023-01-17T14:09:40.498Z,5.93
2023-01-17T14:12:31.015Z,5.64
2023-01-17T14:15:01.237Z,5.54
2023-01-17T14:17:58.026Z,5.89
2023-01-17T14:21:19.800Z,5.89
2023-01-17T14:24:06.518Z,5.48
2023-01-17T14:26:46.115Z,5.37
2023-01-17T14:29:53.561Z,5.34
2023-01-17T14:32:26.344Z,5.46
2023-01-17T14:34:54.409Z,5.61
2023-01-17T14:37:37.577Z,5.44
2023-01-17T14:40:18.732Z,5.29
2023-01-17T14:42:48.395Z,5.38
2023-01-17T14:45:25.998Z,5.44
2023-01-17T14:47:53.283Z,5.30
2023-01-17T14:50:25.525Z,5.19
2023-01-17T14:53:15.631Z,5.38
2023-01-17T14:55:54.384Z,5.16
2023-01-17T14:58:24.444Z,5.10
2023-01-17T15:00:58.111Z,5.07
2023-01-17T15:03:25.647Z,5.16
2023-01-17T15:05:56.302Z,5.58
2023-01-17T15:08:35.361Z,5.20
2023-01-17T15:11:07.950Z,5.29
2023-01-17T15:13:45.125Z,5.16
2023-01-17T15:16:24.706Z,5.05
2023-01-17T15:18:54.682Z,5.07
2023-01-17T15:21:26.166Z,5.02
2023-01-17T15:23:56.860Z,5.13
2023-01-17T15:26:29.881Z,5.10
2023-01-17T15:29:04.815Z,5.15
2023-01-17T15:31:45.034Z,5.17
2023-01-17T15:34:24.628Z,4.92
2023-01-17T15:36:52.889Z,4.95
2023-01-17T15:39:24.857Z,4.89
2023-01-17T15:41:55.988Z,5.01
2023-01-17T15:44:46.893Z,4.91
2023-01-17T15:47:29.167Z,4.94
2023-01-17T15:49:57.843Z,5.18
2023-01-17T15:52:24.990Z,4.87
2023-01-17T15:54:54.407Z,4.82
2023-01-17T15:57:28.744Z,4.84
2023-01-17T16:00:02.321Z,4.74
2023-01-17T16:02:37.431Z,4.99
2023-01-17T16:05:36.932Z,4.83
2023-01-17T16:08:32.105Z,4.83
2023-01-17T16:11:04.233Z,4.66
2023-01-17T16:13:35.546Z,4.76
2023-01-17T16:16:22.583Z,4.75
2023-01-17T16:18:59.151Z,5.02
2023-01-17T16:21:29.744Z,4.69
2023-01-17T16:23:58.178Z,4.81
2023-01-17T16:26:25.067Z,4.75
2023-01-17T16:28:53.682Z,4.81
2023-01-17T16:31:23.718Z,4.71
2023-01-17T16:33:52.136Z,4.44
2023-01-17T16:36:20.081Z,4.44
2023-01-17T16:38:50.887Z,4.27
2023-01-17T16:41:18.211Z,4.32
2023-01-17T16:43:45.199Z,4.49
2023-01-17T16:46:13.744Z,4.50
2023-01-17T16:48:41.223Z,4.75
2023-01-17T16:51:08.786Z,4.43
2023-01-17T16:53:36.390Z,4.56
2023-01-17T16:56:11.859Z,4.36
2023-01-17T16:58:39.211Z,4.55
2023-01-17T17:01:10.476Z,4.76
2023-01-17T17:03:38.697Z,4.71
2023-01-17T17:06:06.403Z,4.43
2023-01-17T17:08:34.751Z,4.39
2023-01-17T17:11:10.445Z,4.29
2023-01-17T17:13:37.257Z,4.24
2023-01-17T17:16:11.114Z,4.26
2023-01-17T17:18:39.385Z,4.14
2023-01-17T17:21:06.473Z,4.62
2023-01-17T17:23:33.371Z,4.79
2023-01-17T17:26:00.216Z,4.34
2023-01-17T17:28:27.316Z,4.45
2023-01-17T17:31:06.951Z,4.61
2023-01-17T17:33:34.070Z,4.37
2023-01-17T17:36:08.488Z,4.36
2023-01-17T17:38:36.878Z,4.63
2023-01-17T17:41:08.591Z,4.90
2023-01-17T17:43:39.835Z,4.82
2023-01-17T17:46:08.766Z,4.52
2023-01-17T17:48:36.624Z,4.35
2023-01-17T17:51:04.697Z,4.26
2023-01-17T17:53:33.581Z,4.20
2023-01-17T17:56:05.844Z,4.20
2023-01-17T17:58:34.525Z,4.17
2023-01-17T18:01:06.311Z,4.20
2023-01-17T18:03:33.866Z,4.22
2023-01-17T18:06:03.311Z,4.27
2023-01-17T18:08:30.982Z,4.30
2023-01-17T18:11:01.419Z,4.39
2023-01-17T18:13:29.515Z,4.41
2023-01-17T18:16:05.392Z,4.47
2023-01-17T18:18:33.312Z,4.55
2023-01-17T18:21:12.414Z,4.60
2023-01-17T18:23:42.937Z,4.67
2023-01-17T18:26:18.960Z,4.72
2023-01-17T18:28:47.149Z,4.75
2023-01-17T18:31:14.809Z,4.78
2023-01-17T18:33:48.454Z,4.81
2023-01-17T18:36:15.486Z,4.84
2023-01-17T18:38:45.309Z,4.42
2023-01-17T18:41:17.055Z,3.90
2023-01-17T18:43:44.468Z,3.79
2023-01-17T18:46:13.448Z,3.77
2023-01-17T18:48:41.369Z,3.93
2023-01-17T18:51:13.184Z,3.78
2023-01-17T18:53:45.220Z,3.65
2023-01-17T18:56:17.975Z,3.63
2023-01-17T18:58:48.196Z,3.41
2023-01-17T19:01:20.541Z,3.12
2023-01-17T19:03:50.946Z,2.96
2023-01-17T19:06:46.322Z,2.87
2023-01-17T19:09:17.007Z,2.85
2023-01-17T19:11:46.589Z,2.69
2023-01-17T19:14:14.183Z,2.68
2023-01-17T19:16:42.664Z,2.62
2023-01-17T19:19:14.631Z,2.64
2023-01-17T19:21:42.674Z,2.62
2023-01-17T19:24:12.077Z,2.54
2023-01-17T19:26:39.954Z,2.53
2023-01-17T19:29:08.579Z,2.37
2023-01-17T19:31:39.947Z,2.25
2023-01-17T19:34:07.178Z,2.19
2023-01-17T19:36:38.159Z,2.15
2023-01-17T19:39:08.319Z,2.08
2023-01-17T19:41:37.834Z,1.97
2023-01-17T19:44:09.029Z,1.93
2023-01-17T19:46:37.408Z,1.84
2023-01-17T19:49:06.678Z,1.84
2023-01-17T19:51:33.987Z,1.91
2023-01-17T19:54:01.384Z,1.83
2023-01-17T19:56:30.260Z,1.81
2023-01-17T19:58:58.096Z,1.77
2023-01-17T20:01:31.039Z,1.85
2023-01-17T20:03:59.502Z,2.05
2023-01-17T20:06:31.405Z,2.27
2023-01-17T20:08:59.127Z,2.47
2023-01-17T20:11:29.171Z,2.62
2023-01-17T20:13:59.091Z,2.75
2023-01-17T20:16:31.714Z,2.79
2023-01-17T20:19:32.655Z,2.89
2023-01-17T20:22:04.951Z,2.93
2023-01-17T20:24:34.905Z,2.94
2023-01-17T20:27:01.960Z,2.84
2023-01-17T20:29:28.923Z,2.76
2023-01-17T20:31:57.135Z,2.72
2023-01-17T20:34:24.248Z,2.66
2023-01-17T20:36:57.717Z,2.67
2023-01-17T20:39:24.646Z,2.77
2023-01-17T20:41:52.166Z,2.82
2023-01-17T20:44:19.095Z,2.88
2023-01-17T20:46:47.137Z,2.94
2023-01-17T20:49:18.369Z,2.98
2023-01-17T20:51:46.588Z,2.99
2023-01-17T20:54:16.014Z,2.97
2023-01-17T20:56:43.755Z,2.98
2023-01-17T20:59:14.049Z,2.97
2023-01-17T21:01:41.325Z,2.97
2023-01-17T21:04:08.203Z,2.94
2023-01-17T21:06:39.963Z,2.93
2023-01-17T21:09:10.548Z,2.87
2023-01-17T21:12:29.689Z,2.82
2023-01-17T21:14:56.554Z,2.83
2023-01-17T21:17:23.642Z,2.79
2023-01-17T21:19:50.504Z,2.74
2023-01-17T21:22:18.969Z,2.70
2023-01-17T21:24:45.850Z,2.84
2023-01-17T21:27:13.236Z,2.85
2023-01-17T21:29:40.000Z,2.81
2023-01-17T21:32:07.056Z,2.75
2023-01-17T21:34:34.464Z,2.65
2023-01-17T21:37:01.624Z,2.61
2023-01-17T21:39:30.226Z,2.53
2023-01-17T21:41:57.099Z,2.49
2023-01-17T21:44:24.042Z,2.48
2023-01-17T21:46:51.002Z,2.46
2023-01-17T21:49:18.007Z,2.34
2023-01-17T21:51:45.232Z,2.27
2023-01-17T21:54:12.748Z,2.26
2023-01-17T21:56:40.891Z,2.25
2023-01-17T21:59:07.922Z,2.22
2023-01-17T22:01:34.877Z,2.26
2023-01-17T22:04:03.591Z,2.27
2023-01-17T22:06:33.289Z,2.27
2023-01-17T22:09:00.405Z,2.21
2023-01-17T22:11:28.062Z,2.19
2023-01-17T22:13:58.877Z,2.15
2023-01-17T22:16:26.147Z,2.17
2023-01-17T22:18:53.466Z,2.17
2023-01-17T22:21:24.302Z,2.18
2023-01-17T22:23:54.375Z,2.18
2023-01-17T22:26:24.357Z,2.17
2023-01-17T22:28:51.319Z,2.17
2023-01-17T22:31:22.831Z,2.17
2023-01-17T22:33:54.489Z,2.15
2023-01-17T22:36:22.980Z,2.19
2023-01-17T22:38:50.475Z,2.18
2023-01-17T22:41:20.568Z,2.18
2023-01-17T22:43:50.734Z,2.12
2023-01-17T22:46:22.857Z,2.10
2023-01-17T22:48:50.234Z,2.10
2023-01-17T22:51:20.072Z,2.13
2023-01-17T22:53:52.936Z,2.16
2023-01-17T22:56:44.418Z,2.22
2023-01-17T22:59:31.782Z,2.17
2023-01-17T23:02:41.450Z,2.09
2023-01-17T23:05:29.548Z,2.08
2023-01-17T23:08:11.732Z,2.04
2023-01-17T23:11:00.758Z,2.02
2023-01-17T23:13:30.791Z,2.01
2023-01-17T23:15:57.843Z,1.94
2023-01-17T23:18:26.319Z,1.95
2023-01-17T23:20:53.292Z,1.96
2023-01-17T23:23:20.167Z,1.98
2023-01-17T23:25:47.163Z,1.99
2023-01-17T23:28:14.409Z,1.81
2023-01-17T23:30:42.072Z,1.89
2023-01-17T23:33:13.073Z,1.76
2023-01-17T23:35:44.180Z,1.88
2023-01-17T23:38:13.587Z,1.96
2023-01-17T23:40:41.745Z,1.96
2023-01-17T23:43:09.904Z,1.94
2023-01-17T23:46:29.881Z,1.97
2023-01-17T23:48:56.788Z,1.96
2023-01-17T23:51:25.213Z,1.99
2023-01-17T23:53:52.061Z,2.03
2023-01-17T23:56:22.546Z,2.04
2023-01-17T23:58:49.899Z,2.07
